sensor_id;sensor_type;location;lat;lon;timestamp;pressure;altitude;pressure_sealevel;temperature;humidity
77281;BME280;66339;47.262;17.144;2023-05-27T00:01:35;100698.41;;;21.70;58.21
77281;BME280;66339;47.262;17.144;2023-05-27T00:04:02;100694.09;;;21.69;58.20
77281;BME280;66339;47.262;17.144;2023-05-27T00:06:29;100701.66;;;21.67;58.26
77281;BME280;66339;47.262;17.144;2023-05-27T00:08:59;100698.97;;;21.67;58.24
77281;BME280;66339;47.262;17.144;2023-05-27T00:11:27;100695.47;;;21.66;58.28
77281;BME280;66339;47.262;17.144;2023-05-27T00:13:54;100700.06;;;21.66;58.27
77281;BME280;66339;47.262;17.144;2023-05-27T00:16:21;100693.84;;;21.65;58.32
77281;BME280;66339;47.262;17.144;2023-05-27T00:18:48;100686.59;;;21.66;58.28
77281;BME280;66339;47.262;17.144;2023-05-27T00:21:15;100693.03;;;21.65;58.27
77281;BME280;66339;47.262;17.144;2023-05-27T00:23:45;100695.47;;;21.66;58.21
77281;BME280;66339;47.262;17.144;2023-05-27T00:26:13;100693.84;;;21.65;58.28
77281;BME280;66339;47.262;17.144;2023-05-27T00:28:40;100687.66;;;21.65;58.27
77281;BME280;66339;47.262;17.144;2023-05-27T00:31:10;100689.28;;;21.66;58.20
77281;BME280;66339;47.262;17.144;2023-05-27T00:33:37;100696.84;;;21.64;58.26
77281;BME280;66339;47.262;17.144;2023-05-27T00:36:07;100698.44;;;21.65;58.17
77281;BME280;66339;47.262;17.144;2023-05-27T00:38:37;100704.34;;;21.67;58.10
77281;BME280;66339;47.262;17.144;2023-05-27T00:41:04;100698.44;;;21.65;58.07
77281;BME280;66339;47.262;17.144;2023-05-27T00:43:30;100701.13;;;21.65;58.10
77281;BME280;66339;47.262;17.144;2023-05-27T00:46:00;100700.06;;;21.66;58.06
77281;BME280;66339;47.262;17.144;2023-05-27T00:48:27;100699.22;;;21.65;58.06
77281;BME280;66339;47.262;17.144;2023-05-27T00:50:55;100698.44;;;21.65;58.05
77281;BME280;66339;47.262;17.144;2023-05-27T00:53:22;100696.84;;;21.64;58.06
77281;BME280;66339;47.262;17.144;2023-05-27T00:55:53;100697.94;;;21.63;58.05
77281;BME280;66339;47.262;17.144;2023-05-27T00:58:23;100694.94;;;21.64;57.97
77281;BME280;66339;47.262;17.144;2023-05-27T01:00:50;100699.53;;;21.64;57.96
77281;BME280;66339;47.262;17.144;2023-05-27T01:03:17;100689.84;;;21.63;57.95
77281;BME280;66339;47.262;17.144;2023-05-27T01:05:45;100688.75;;;21.64;57.92
77281;BME280;66339;47.262;17.144;2023-05-27T01:08:17;100688.25;;;21.62;57.91
77281;BME280;66339;47.262;17.144;2023-05-27T01:10:50;100688.25;;;21.62;57.90
77281;BME280;66339;47.262;17.144;2023-05-27T01:15:46;100681.22;;;21.61;57.89
77281;BME280;66339;47.262;17.144;2023-05-27T01:18:14;100682.03;;;21.61;57.82
77281;BME280;66339;47.262;17.144;2023-05-27T01:20:42;100679.62;;;21.60;57.84
77281;BME280;66339;47.262;17.144;2023-05-27T01:23:11;100686.62;;;21.61;57.83
77281;BME280;66339;47.262;17.144;2023-05-27T01:25:38;100682.31;;;21.60;57.83
77281;BME280;66339;47.262;17.144;2023-05-27T01:28:05;100681.81;;;21.58;57.80
77281;BME280;66339;47.262;17.144;2023-05-27T01:30:32;100685.03;;;21.60;57.74
77281;BME280;66339;47.262;17.144;2023-05-27T01:35:30;100687.19;;;21.58;57.64
77281;BME280;66339;47.262;17.144;2023-05-27T01:38:01;100687.19;;;21.58;57.62
77281;BME280;66339;47.262;17.144;2023-05-27T01:40:28;100690.69;;;21.58;57.54
77281;BME280;66339;47.262;17.144;2023-05-27T01:42:56;100688.00;;;21.58;57.50
77281;BME280;66339;47.262;17.144;2023-05-27T01:45:26;100679.38;;;21.56;57.50
77281;BME280;66339;47.262;17.144;2023-05-27T01:47:56;100681.28;;;21.55;57.50
77281;BME280;66339;47.262;17.144;2023-05-27T01:50:28;100678.59;;;21.55;57.36
77281;BME280;66339;47.262;17.144;2023-05-27T01:52:55;100673.22;;;21.55;57.32
77281;BME280;66339;47.262;17.144;2023-05-27T01:55:25;100678.59;;;21.55;57.27
77281;BME280;66339;47.262;17.144;2023-05-27T01:57:53;100667.03;;;21.55;57.22
77281;BME280;66339;47.262;17.144;2023-05-27T02:00:23;100665.44;;;21.54;57.14
77281;BME280;66339;47.262;17.144;2023-05-27T02:02:50;100660.31;;;21.52;57.16
77281;BME280;66339;47.262;17.144;2023-05-27T02:05:17;100659.22;;;21.53;57.09
77281;BME280;66339;47.262;17.144;2023-05-27T02:07:47;100663.78;;;21.53;57.08
77281;BME280;66339;47.262;17.144;2023-05-27T02:10:14;100661.41;;;21.51;57.02
77281;BME280;66339;47.262;17.144;2023-05-27T02:12:43;100659.50;;;21.52;56.97
77281;BME280;66339;47.262;17.144;2023-05-27T02:15:10;100664.09;;;21.51;56.99
77281;BME280;66339;47.262;17.144;2023-05-27T02:17:40;100660.31;;;21.52;56.89
77281;BME280;66339;47.262;17.144;2023-05-27T02:20:11;100663.00;;;21.52;56.88
77281;BME280;66339;47.262;17.144;2023-05-27T02:22:40;100659.78;;;21.50;56.80
77281;BME280;66339;47.262;17.144;2023-05-27T02:25:08;100663.28;;;21.51;56.81
77281;BME280;66339;47.262;17.144;2023-05-27T02:27:35;100661.41;;;21.51;56.73
77281;BME280;66339;47.262;17.144;2023-05-27T02:30:02;100663.56;;;21.49;56.72
77281;BME280;66339;47.262;17.144;2023-05-27T02:32:28;100662.50;;;21.50;56.62
77281;BME280;66339;47.262;17.144;2023-05-27T02:34:55;100658.16;;;21.49;56.61
77281;BME280;66339;47.262;17.144;2023-05-27T02:37:24;100660.84;;;21.49;56.57
77281;BME280;66339;47.262;17.144;2023-05-27T02:39:52;100654.97;;;21.47;56.52
77281;BME280;66339;47.262;17.144;2023-05-27T02:42:19;100663.56;;;21.49;56.49
77281;BME280;66339;47.262;17.144;2023-05-27T02:44:46;100660.84;;;21.49;56.42
77281;BME280;66339;47.262;17.144;2023-05-27T02:47:13;100660.06;;;21.49;56.34
77281;BME280;66339;47.262;17.144;2023-05-27T02:49:43;100661.16;;;21.48;56.36
77281;BME280;66339;47.262;17.144;2023-05-27T02:52:10;100663.34;;;21.46;56.40
77281;BME280;66339;47.262;17.144;2023-05-27T02:54:37;100662.50;;;21.45;56.37
77281;BME280;66339;47.262;17.144;2023-05-27T02:57:04;100659.81;;;21.45;56.29
77281;BME280;66339;47.262;17.144;2023-05-27T02:59:31;100671.66;;;21.44;56.29
77281;BME280;66339;47.262;17.144;2023-05-27T03:02:01;100670.56;;;21.45;56.24
77281;BME280;66339;47.262;17.144;2023-05-27T03:04:28;100672.47;;;21.45;56.16
77281;BME280;66339;47.262;17.144;2023-05-27T03:06:55;100677.59;;;21.46;56.11
77281;BME280;66339;47.262;17.144;2023-05-27T03:09:24;100684.03;;;21.45;56.08
77281;BME280;66339;47.262;17.144;2023-05-27T03:11:51;100682.44;;;21.44;56.06
77281;BME280;66339;47.262;17.144;2023-05-27T03:14:21;100680.84;;;21.43;56.04
77281;BME280;66339;47.262;17.144;2023-05-27T03:16:48;100686.22;;;21.43;56.01
77281;BME280;66339;47.262;17.144;2023-05-27T03:19:18;100687.81;;;21.44;55.97
77281;BME280;66339;47.262;17.144;2023-05-27T03:21:49;100694.56;;;21.42;55.96
77281;BME280;66339;47.262;17.144;2023-05-27T03:24:18;100687.31;;;21.42;55.95
77281;BME280;66339;47.262;17.144;2023-05-27T03:26:45;100685.69;;;21.41;55.91
77281;BME280;66339;47.262;17.144;2023-05-27T03:29:17;100688.37;;;21.41;55.89
77281;BME280;66339;47.262;17.144;2023-05-27T03:31:44;100695.38;;;21.42;55.84
77281;BME280;66339;47.262;17.144;2023-05-27T03:34:11;100697.53;;;21.40;55.81
77281;BME280;66339;47.262;17.144;2023-05-27T03:36:38;100695.94;;;21.39;55.89
77281;BME280;66339;47.262;17.144;2023-05-27T03:39:08;100702.91;;;21.40;55.83
77281;BME280;66339;47.262;17.144;2023-05-27T03:41:35;100698.63;;;21.39;55.82
77281;BME280;66339;47.262;17.144;2023-05-27T03:44:02;100699.72;;;21.38;55.81
77281;BME280;66339;47.262;17.144;2023-05-27T03:46:30;100702.91;;;21.40;55.79
77281;BME280;66339;47.262;17.144;2023-05-27T03:48:57;100701.31;;;21.39;55.77
77281;BME280;66339;47.262;17.144;2023-05-27T03:51:23;100692.16;;;21.40;55.74
77281;BME280;66339;47.262;17.144;2023-05-27T03:53:51;100700.50;;;21.39;55.68
77281;BME280;66339;47.262;17.144;2023-05-27T03:56:18;100708.59;;;21.39;55.70
77281;BME280;66339;47.262;17.144;2023-05-27T03:58:45;100709.66;;;21.38;55.71
77281;BME280;66339;47.262;17.144;2023-05-27T04:01:12;100710.47;;;21.38;55.64
77281;BME280;66339;47.262;17.144;2023-05-27T04:03:38;100710.72;;;21.37;55.62
77281;BME280;66339;47.262;17.144;2023-05-27T04:06:06;100714.22;;;21.37;55.55
77281;BME280;66339;47.262;17.144;2023-05-27T04:08:33;100714.22;;;21.37;55.49
77281;BME280;66339;47.262;17.144;2023-05-27T04:11:00;100712.34;;;21.38;55.47
77281;BME280;66339;47.262;17.144;2023-05-27T04:13:27;100725.00;;;21.37;55.45
77281;BME280;66339;47.262;17.144;2023-05-27T04:15:54;100721.50;;;21.37;55.41
77281;BME280;66339;47.262;17.144;2023-05-27T04:18:21;100718.00;;;21.36;55.39
77281;BME280;66339;47.262;17.144;2023-05-27T04:20:51;100728.78;;;21.36;55.41
77281;BME280;66339;47.262;17.144;2023-05-27T04:23:18;100727.16;;;21.35;55.30
77281;BME280;66339;47.262;17.144;2023-05-27T04:25:45;100724.47;;;21.35;55.27
77281;BME280;66339;47.262;17.144;2023-05-27T04:28:15;100727.16;;;21.35;55.27
77281;BME280;66339;47.262;17.144;2023-05-27T04:30:42;100722.88;;;21.34;55.25
77281;BME280;66339;47.262;17.144;2023-05-27T04:33:12;100724.75;;;21.33;55.17
77281;BME280;66339;47.262;17.144;2023-05-27T04:35:38;100726.62;;;21.33;55.23
77281;BME280;66339;47.262;17.144;2023-05-27T04:38:06;100730.12;;;21.33;55.15
77281;BME280;66339;47.262;17.144;2023-05-27T04:40:33;100729.31;;;21.33;55.16
77281;BME280;66339;47.262;17.144;2023-05-27T04:43:00;100729.31;;;21.33;55.17
77281;BME280;66339;47.262;17.144;2023-05-27T04:45:32;100735.75;;;21.32;55.11
77281;BME280;66339;47.262;17.144;2023-05-27T04:48:04;100726.62;;;21.33;55.09
77281;BME280;66339;47.262;17.144;2023-05-27T04:50:32;100730.38;;;21.32;55.11
77281;BME280;66339;47.262;17.144;2023-05-27T04:52:59;100729.31;;;21.33;55.07
77281;BME280;66339;47.262;17.144;2023-05-27T04:55:29;100731.47;;;21.31;55.06
77281;BME280;66339;47.262;17.144;2023-05-27T04:58:00;100727.69;;;21.32;54.99
77281;BME280;66339;47.262;17.144;2023-05-27T05:00:27;100726.88;;;21.31;54.95
77281;BME280;66339;47.262;17.144;2023-05-27T05:02:57;100721.78;;;21.30;54.99
77281;BME280;66339;47.262;17.144;2023-05-27T05:05:24;100724.50;;;21.30;54.96
77281;BME280;66339;47.262;17.144;2023-05-27T05:07:52;100729.88;;;21.30;54.97
77281;BME280;66339;47.262;17.144;2023-05-27T05:10:22;100726.34;;;21.29;54.96
77281;BME280;66339;47.262;17.144;2023-05-27T05:12:51;100716.69;;;21.28;54.98
77281;BME280;66339;47.262;17.144;2023-05-27T05:15:18;100728.25;;;21.29;54.99
77281;BME280;66339;47.262;17.144;2023-05-27T05:17:45;100714.28;;;21.27;55.04
77281;BME280;66339;47.262;17.144;2023-05-27T05:20:12;100713.19;;;21.28;55.04
77281;BME280;66339;47.262;17.144;2023-05-27T05:22:39;100715.88;;;21.28;55.06
77281;BME280;66339;47.262;17.144;2023-05-27T05:25:08;100722.34;;;21.27;55.13
77281;BME280;66339;47.262;17.144;2023-05-27T05:27:35;100725.03;;;21.27;55.16
77281;BME280;66339;47.262;17.144;2023-05-27T05:30:05;100734.16;;;21.26;55.43
77281;BME280;66339;47.262;17.144;2023-05-27T05:32:33;100735.81;;;21.27;55.40
77281;BME280;66339;47.262;17.144;2023-05-27T05:35:02;100727.97;;;21.30;55.01
77281;BME280;66339;47.262;17.144;2023-05-27T05:37:30;100737.94;;;21.30;54.97
77281;BME280;66339;47.262;17.144;2023-05-27T05:40:00;100740.62;;;21.30;54.87
77281;BME280;66339;47.262;17.144;2023-05-27T05:42:27;100734.41;;;21.29;54.90
77281;BME280;66339;47.262;17.144;2023-05-27T05:44:54;100746.00;;;21.30;54.89
77281;BME280;66339;47.262;17.144;2023-05-27T05:47:21;100738.19;;;21.28;54.82
77281;BME280;66339;47.262;17.144;2023-05-27T05:49:48;100745.47;;;21.28;54.83
77281;BME280;66339;47.262;17.144;2023-05-27T05:52:15;100747.38;;;21.27;54.59
77281;BME280;66339;47.262;17.144;2023-05-27T05:54:45;100748.72;;;21.25;54.35
77281;BME280;66339;47.262;17.144;2023-05-27T05:57:12;100754.09;;;21.25;54.40
77281;BME280;66339;47.262;17.144;2023-05-27T05:59:42;100759.47;;;21.25;54.00
77281;BME280;66339;47.262;17.144;2023-05-27T06:02:09;100756.28;;;21.23;53.84
77281;BME280;66339;47.262;17.144;2023-05-27T06:04:42;100758.97;;;21.23;53.58
77281;BME280;66339;47.262;17.144;2023-05-27T06:07:15;100765.41;;;21.22;53.73
77281;BME280;66339;47.262;17.144;2023-05-27T06:09:42;100770.78;;;21.22;53.50
77281;BME280;66339;47.262;17.144;2023-05-27T06:12:09;100770.78;;;21.22;53.41
77281;BME280;66339;47.262;17.144;2023-05-27T06:14:39;100770.78;;;21.22;53.19
77281;BME280;66339;47.262;17.144;2023-05-27T06:17:06;100779.13;;;21.20;53.56
77281;BME280;66339;47.262;17.144;2023-05-27T06:19:33;100778.34;;;21.20;53.57
77281;BME280;66339;47.262;17.144;2023-05-27T06:21:59;100776.72;;;21.19;53.83
77281;BME280;66339;47.262;17.144;2023-05-27T06:24:26;100772.66;;;21.21;53.91
77281;BME280;66339;47.262;17.144;2023-05-27T06:26:53;100781.53;;;21.22;54.08
77281;BME280;66339;47.262;17.144;2023-05-27T06:29:20;100778.59;;;21.23;54.17
77281;BME280;66339;47.262;17.144;2023-05-27T06:31:49;100783.16;;;21.23;54.26
77281;BME280;66339;47.262;17.144;2023-05-27T06:34:19;100786.66;;;21.23;54.46
77281;BME280;66339;47.262;17.144;2023-05-27T06:36:46;100796.63;;;21.23;54.49
77281;BME280;66339;47.262;17.144;2023-05-27T06:39:16;100802.50;;;21.25;54.65
77281;BME280;66339;47.262;17.144;2023-05-27T06:41:43;100799.31;;;21.23;54.73
77281;BME280;66339;47.262;17.144;2023-05-27T06:44:13;100800.91;;;21.24;54.77
77281;BME280;66339;47.262;17.144;2023-05-27T06:46:40;100810.34;;;21.26;54.75
77281;BME280;66339;47.262;17.144;2023-05-27T06:49:07;100810.88;;;21.23;55.04
77281;BME280;66339;47.262;17.144;2023-05-27T06:51:34;100809.50;;;21.26;55.06
77281;BME280;66339;47.262;17.144;2023-05-27T06:54:04;100823.50;;;21.28;54.91
77281;BME280;66339;47.262;17.144;2023-05-27T06:56:31;100819.19;;;21.27;54.91
77281;BME280;66339;47.262;17.144;2023-05-27T06:58:58;100817.31;;;21.27;54.93
77281;BME280;66339;47.262;17.144;2023-05-27T07:01:26;100822.94;;;21.26;54.91
77281;BME280;66339;47.262;17.144;2023-05-27T07:03:53;100831.84;;;21.26;54.94
77281;BME280;66339;47.262;17.144;2023-05-27T07:06:20;100832.41;;;21.23;54.97
77281;BME280;66339;47.262;17.144;2023-05-27T07:08:47;100825.41;;;21.22;54.97
77281;BME280;66339;47.262;17.144;2023-05-27T07:11:20;100836.97;;;21.23;54.94
77281;BME280;66339;47.262;17.144;2023-05-27T07:13:48;100831.59;;;21.23;54.93
77281;BME280;66339;47.262;17.144;2023-05-27T07:16:15;100832.66;;;21.22;54.99
77281;BME280;66339;47.262;17.144;2023-05-27T07:18:44;100839.12;;;21.21;55.04
77281;BME280;66339;47.262;17.144;2023-05-27T07:21:11;100836.97;;;21.23;54.94
77281;BME280;66339;47.262;17.144;2023-05-27T07:23:41;100833.75;;;21.21;55.03
77281;BME280;66339;47.262;17.144;2023-05-27T07:26:11;100832.66;;;21.22;55.18
77281;BME280;66339;47.262;17.144;2023-05-27T07:28:41;100830.78;;;21.22;55.26
77281;BME280;66339;47.262;17.144;2023-05-27T07:31:08;100827.00;;;21.23;55.28
77281;BME280;66339;47.262;17.144;2023-05-27T07:33:35;100827.00;;;21.23;55.36
77281;BME280;66339;47.262;17.144;2023-05-27T07:36:05;100826.22;;;21.23;55.41
77281;BME280;66339;47.262;17.144;2023-05-27T07:38:32;100826.22;;;21.23;55.49
77281;BME280;66339;47.262;17.144;2023-05-27T07:41:00;100824.59;;;21.22;55.54
77281;BME280;66339;47.262;17.144;2023-05-27T07:43:30;100818.94;;;21.23;55.68
77281;BME280;66339;47.262;17.144;2023-05-27T07:46:00;100818.66;;;21.25;55.57
77281;BME280;66339;47.262;17.144;2023-05-27T07:48:30;100822.94;;;21.26;55.55
77281;BME280;66339;47.262;17.144;2023-05-27T07:51:00;100825.09;;;21.29;55.58
77281;BME280;66339;47.262;17.144;2023-05-27T07:53:30;100823.22;;;21.29;55.58
77281;BME280;66339;47.262;17.144;2023-05-27T07:56:00;100819.16;;;21.32;54.90
77281;BME280;66339;47.262;17.144;2023-05-27T07:58:30;100821.06;;;21.31;55.15
77281;BME280;66339;47.262;17.144;2023-05-27T08:01:00;100814.62;;;21.32;55.20
77281;BME280;66339;47.262;17.144;2023-05-27T08:03:31;100815.41;;;21.33;55.29
77281;BME280;66339;47.262;17.144;2023-05-27T08:06:04;100816.22;;;21.33;55.32
77281;BME280;66339;47.262;17.144;2023-05-27T08:08:31;100820.81;;;21.33;55.39
77281;BME280;66339;47.262;17.144;2023-05-27T08:11:04;100808.94;;;21.29;55.53
77281;BME280;66339;47.262;17.144;2023-05-27T08:13:34;100815.97;;;21.30;54.71
77281;BME280;66339;47.262;17.144;2023-05-27T08:16:10;100809.75;;;21.29;54.18
77281;BME280;66339;47.262;17.144;2023-05-27T08:18:40;100810.59;;;21.30;54.62
77281;BME280;66339;47.262;17.144;2023-05-27T08:21:08;100810.59;;;21.30;54.43
77281;BME280;66339;47.262;17.144;2023-05-27T08:23:39;100808.94;;;21.29;54.57
77281;BME280;66339;47.262;17.144;2023-05-27T08:26:16;100811.38;;;21.30;54.66
77281;BME280;66339;47.262;17.144;2023-05-27T08:28:44;100806.56;;;21.32;54.29
77281;BME280;66339;47.262;17.144;2023-05-27T08:31:15;100812.19;;;21.31;54.34
77281;BME280;66339;47.262;17.144;2023-05-27T08:33:45;100808.69;;;21.30;54.31
77281;BME280;66339;47.262;17.144;2023-05-27T08:36:15;100803.03;;;21.32;54.18
77281;BME280;66339;47.262;17.144;2023-05-27T08:38:45;100802.22;;;21.31;54.24
77281;BME280;66339;47.262;17.144;2023-05-27T08:41:13;100801.97;;;21.33;54.24
77281;BME280;66339;47.262;17.144;2023-05-27T08:43:41;100803.03;;;21.32;54.24
77281;BME280;66339;47.262;17.144;2023-05-27T08:46:08;100800.91;;;21.34;53.00
77281;BME280;66339;47.262;17.144;2023-05-27T08:48:36;100799.81;;;21.30;52.34
77281;BME280;66339;47.262;17.144;2023-05-27T08:51:07;100802.50;;;21.30;53.16
77281;BME280;66339;47.262;17.144;2023-05-27T08:53:39;100789.87;;;21.30;53.38
77281;BME280;66339;47.262;17.144;2023-05-27T08:56:08;100804.66;;;21.28;53.47
77281;BME280;66339;47.262;17.144;2023-05-27T08:58:39;100803.84;;;21.27;53.56
77281;BME280;66339;47.262;17.144;2023-05-27T09:01:10;100805.22;;;21.30;53.31
77281;BME280;66339;47.262;17.144;2023-05-27T09:03:40;100798.19;;;21.29;53.48
77281;BME280;66339;47.262;17.144;2023-05-27T09:06:08;100800.38;;;21.27;53.39
77281;BME280;66339;47.262;17.144;2023-05-27T09:08:34;100798.19;;;21.29;53.55
77281;BME280;66339;47.262;17.144;2023-05-27T09:11:23;100794.44;;;21.30;53.65
77281;BME280;66339;47.262;17.144;2023-05-27T09:13:52;100797.13;;;21.30;54.70
77281;BME280;66339;47.262;17.144;2023-05-27T09:16:23;100797.66;;;21.32;54.07
77281;BME280;66339;47.262;17.144;2023-05-27T09:18:50;100800.91;;;21.34;54.22
77281;BME280;66339;47.262;17.144;2023-05-27T09:21:18;100798.72;;;21.36;54.22
77281;BME280;66339;47.262;17.144;2023-05-27T09:23:45;100801.44;;;21.36;54.28
77281;BME280;66339;47.262;17.144;2023-05-27T09:26:12;100792.00;;;21.39;52.97
77281;BME280;66339;47.262;17.144;2023-05-27T09:28:40;100792.81;;;21.39;52.97
77281;BME280;66339;47.262;17.144;2023-05-27T09:31:08;100791.22;;;21.38;53.39
77281;BME280;66339;47.262;17.144;2023-05-27T09:33:36;100796.59;;;21.38;53.51
77281;BME280;66339;47.262;17.144;2023-05-27T09:36:05;100792.00;;;21.39;53.68
77281;BME280;66339;47.262;17.144;2023-05-27T09:38:34;100786.88;;;21.37;53.73
77281;BME280;66339;47.262;17.144;2023-05-27T09:41:02;100780.44;;;21.38;53.87
77281;BME280;66339;47.262;17.144;2023-05-27T09:43:32;100778.25;;;21.40;53.93
77281;BME280;66339;47.262;17.144;2023-05-27T09:46:00;100778.25;;;21.40;54.08
77281;BME280;66339;47.262;17.144;2023-05-27T09:48:31;100774.47;;;21.41;54.16
77281;BME280;66339;47.262;17.144;2023-05-27T09:50:59;100770.72;;;21.42;54.29
77281;BME280;66339;47.262;17.144;2023-05-27T09:53:26;100769.91;;;21.42;54.27
77281;BME280;66339;47.262;17.144;2023-05-27T09:55:54;100776.91;;;21.43;54.35
77281;BME280;66339;47.262;17.144;2023-05-27T09:58:20;100771.53;;;21.43;54.68
77281;BME280;66339;47.262;17.144;2023-05-27T10:00:47;100765.34;;;21.42;54.67
77281;BME280;66339;47.262;17.144;2023-05-27T10:03:16;100773.94;;;21.44;54.52
77281;BME280;66339;47.262;17.144;2023-05-27T10:05:48;100774.72;;;21.45;54.70
77281;BME280;66339;47.262;17.144;2023-05-27T10:08:15;100767.75;;;21.44;54.62
77281;BME280;66339;47.262;17.144;2023-05-27T10:10:54;100762.06;;;21.45;54.82
77281;BME280;66339;47.262;17.144;2023-05-27T10:13:23;100770.16;;;21.45;54.90
77281;BME280;66339;47.262;17.144;2023-05-27T10:15:50;100773.38;;;21.47;54.93
77281;BME280;66339;47.262;17.144;2023-05-27T10:18:22;100770.69;;;21.47;54.98
77281;BME280;66339;47.262;17.144;2023-05-27T10:20:50;100774.19;;;21.48;55.10
77281;BME280;66339;47.262;17.144;2023-05-27T10:23:18;100764.22;;;21.48;54.21
77281;BME280;66339;47.262;17.144;2023-05-27T10:25:46;100768.50;;;21.49;54.79
77281;BME280;66339;47.262;17.144;2023-05-27T10:28:23;100767.72;;;21.49;54.99
77281;BME280;66339;47.262;17.144;2023-05-27T10:30:51;100769.06;;;21.51;55.34
77281;BME280;66339;47.262;17.144;2023-05-27T10:33:28;100771.75;;;21.51;55.83
77281;BME280;66339;47.262;17.144;2023-05-27T10:35:55;100766.88;;;21.53;55.90
77281;BME280;66339;47.262;17.144;2023-05-27T10:38:22;100758.78;;;21.53;55.94
77281;BME280;66339;47.262;17.144;2023-05-27T10:41:02;100761.50;;;21.53;55.85
77281;BME280;66339;47.262;17.144;2023-05-27T10:43:30;100765.81;;;21.54;55.58
77281;BME280;66339;47.262;17.144;2023-05-27T10:46:11;100766.31;;;21.56;55.93
77281;BME280;66339;47.262;17.144;2023-05-27T10:48:41;100758.25;;;21.56;56.09
77281;BME280;66339;47.262;17.144;2023-05-27T10:51:08;100763.63;;;21.56;55.93
77281;BME280;66339;47.262;17.144;2023-05-27T10:53:37;100757.19;;;21.58;55.98
77281;BME280;66339;47.262;17.144;2023-05-27T10:56:06;100747.22;;;21.58;56.00
77281;BME280;66339;47.262;17.144;2023-05-27T10:58:33;100753.41;;;21.59;55.93
77281;BME280;66339;47.262;17.144;2023-05-27T11:01:00;100755.00;;;21.60;55.83
77281;BME280;66339;47.262;17.144;2023-05-27T11:03:30;100751.22;;;21.61;55.84
77281;BME280;66339;47.262;17.144;2023-05-27T11:06:00;100757.41;;;21.61;55.73
77281;BME280;66339;47.262;17.144;2023-05-27T11:08:28;100742.88;;;21.62;55.77
77281;BME280;66339;47.262;17.144;2023-05-27T11:11:02;100741.00;;;21.63;55.76
77281;BME280;66339;47.262;17.144;2023-05-27T11:13:39;100737.50;;;21.62;55.75
77281;BME280;66339;47.262;17.144;2023-05-27T11:16:08;100742.88;;;21.62;55.76
77281;BME280;66339;47.262;17.144;2023-05-27T11:18:38;100728.34;;;21.63;55.76
77281;BME280;66339;47.262;17.144;2023-05-27T11:21:10;100721.06;;;21.64;55.70
77281;BME280;66339;47.262;17.144;2023-05-27T11:23:40;100719.97;;;21.65;55.72
77281;BME280;66339;47.262;17.144;2023-05-27T11:26:23;100713.78;;;21.64;55.74
77281;BME280;66339;47.262;17.144;2023-05-27T11:28:57;100706.50;;;21.65;55.84
77281;BME280;66339;47.262;17.144;2023-05-27T11:31:31;100711.09;;;21.64;55.84
77281;BME280;66339;47.262;17.144;2023-05-27T11:34:02;100707.59;;;21.64;55.85
77281;BME280;66339;47.262;17.144;2023-05-27T11:36:29;100712.97;;;21.64;55.91
77281;BME280;66339;47.262;17.144;2023-05-27T11:38:57;100714.59;;;21.65;55.92
77281;BME280;66339;47.262;17.144;2023-05-27T11:41:25;100701.13;;;21.65;55.91
77281;BME280;66339;47.262;17.144;2023-05-27T11:46:33;100702.22;;;21.64;55.94
77281;BME280;66339;47.262;17.144;2023-05-27T11:49:05;100703.81;;;21.65;55.92
77281;BME280;66339;47.262;17.144;2023-05-27T11:51:45;100693.84;;;21.65;55.95
77281;BME280;66339;47.262;17.144;2023-05-27T11:54:26;100698.44;;;21.65;55.94
77281;BME280;66339;47.262;17.144;2023-05-27T11:56:54;100699.22;;;21.65;55.94
77281;BME280;66339;47.262;17.144;2023-05-27T11:59:25;100700.06;;;21.66;55.89
77281;BME280;66339;47.262;17.144;2023-05-27T12:01:52;100694.69;;;21.66;55.89
77281;BME280;66339;47.262;17.144;2023-05-27T12:04:19;100700.06;;;21.66;55.89
77281;BME280;66339;47.262;17.144;2023-05-27T12:06:46;100696.28;;;21.67;55.88
77281;BME280;66339;47.262;17.144;2023-05-27T12:09:15;100699.47;;;21.69;55.86
77281;BME280;66339;47.262;17.144;2023-05-27T12:11:42;100694.09;;;21.69;55.86
77281;BME280;66339;47.262;17.144;2023-05-27T12:14:09;100684.16;;;21.69;55.94
77281;BME280;66339;47.262;17.144;2023-05-27T12:16:35;100693.53;;;21.72;55.94
77281;BME280;66339;47.262;17.144;2023-05-27T12:19:02;100689.25;;;21.71;56.13
77281;BME280;66339;47.262;17.144;2023-05-27T12:21:29;100695.97;;;21.73;55.95
77281;BME280;66339;47.262;17.144;2023-05-27T12:23:56;100693.53;;;21.72;55.92
77281;BME280;66339;47.262;17.144;2023-05-27T12:26:23;100695.13;;;21.73;55.81
77281;BME280;66339;47.262;17.144;2023-05-27T12:28:50;100684.37;;;21.73;55.89
77281;BME280;66339;47.262;17.144;2023-05-27T12:31:17;100683.56;;;21.72;55.86
77281;BME280;66339;47.262;17.144;2023-05-27T12:33:45;100682.75;;;21.72;55.61
77281;BME280;66339;47.262;17.144;2023-05-27T12:36:15;100682.75;;;21.72;55.55
77281;BME280;66339;47.262;17.144;2023-05-27T12:38:45;100681.16;;;21.71;55.61
77281;BME280;66339;47.262;17.144;2023-05-27T12:41:12;100678.97;;;21.73;55.67
77281;BME280;66339;47.262;17.144;2023-05-27T12:43:38;100681.66;;;21.73;55.70
77281;BME280;66339;47.262;17.144;2023-05-27T12:46:08;100678.97;;;21.73;55.76
77281;BME280;66339;47.262;17.144;2023-05-27T12:48:35;100669.84;;;21.74;55.72
77281;BME280;66339;47.262;17.144;2023-05-27T12:51:01;100676.81;;;21.75;55.80
77281;BME280;66339;47.262;17.144;2023-05-27T12:53:31;100667.16;;;21.74;55.85
77281;BME280;66339;47.262;17.144;2023-05-27T12:56:01;100675.72;;;21.76;55.84